Time;durP1;ratioP1;P1;durP2;ratioP2;P2;SDS_P1;SDS_P2;PMS_P1;PMS_P2;Temp;Humidity;BMP_temperature;BMP_pressure;BME280_temperature;BME280_humidity;BME280_pressure;Samples;Min_cycle;Max_cycle;Signal;HPM_P1;HPM_P2
2020/04/23 00:02:48;;;;;;;3.26;2.41;;;;;;;19.20;37.35;100689.83;;;;-55
2020/04/23 00:05:48;;;;;;;3.00;2.23;;;;;;;19.20;37.43;100692.91;;;;-53
2020/04/23 00:08:47;;;;;;;2.43;2.23;;;;;;;19.19;37.32;100696.98;;;;-54
2020/04/23 00:11:47;;;;;;;2.45;2.25;;;;;;;19.18;37.42;100694.09;;;;-55
2020/04/23 00:14:47;;;;;;;2.36;2.16;;;;;;;19.18;37.39;100698.05;;;;-54
2020/04/23 00:17:47;;;;;;;2.83;2.34;;;;;;;19.18;37.33;100692.70;;;;-54
2020/04/23 00:20:47;;;;;;;2.40;2.20;;;;;;;19.17;37.34;100692.20;;;;-55
2020/04/23 00:23:47;;;;;;;2.44;2.24;;;;;;;19.17;37.33;100696.22;;;;-55
2020/04/23 00:26:47;;;;;;;2.44;2.24;;;;;;;19.16;37.33;100689.07;;;;-54
2020/04/23 00:29:47;;;;;;;2.39;2.19;;;;;;;19.15;37.33;100693.70;;;;-54
2020/04/23 00:32:47;;;;;;;2.41;2.21;;;;;;;19.16;37.30;100701.36;;;;-54
2020/04/23 00:35:47;;;;;;;2.51;2.31;;;;;;;19.15;37.32;100698.80;;;;-55
2020/04/23 00:38:47;;;;;;;2.41;2.21;;;;;;;19.15;37.33;100698.75;;;;-55
2020/04/23 00:41:47;;;;;;;2.19;1.99;;;;;;;19.14;37.28;100694.66;;;;-55
2020/04/23 00:44:47;;;;;;;2.40;2.17;;;;;;;19.13;37.30;100697.30;;;;-55
2020/04/23 00:47:47;;;;;;;2.45;2.25;;;;;;;19.13;37.32;100699.97;;;;-54
2020/04/23 00:50:47;;;;;;;2.40;2.20;;;;;;;19.13;37.36;100701.54;;;;-54
2020/04/23 00:53:47;;;;;;;2.55;2.30;;;;;;;19.12;37.30;100697.05;;;;-55
2020/04/23 00:56:47;;;;;;;2.39;2.19;;;;;;;19.12;37.34;100693.75;;;;-54
2020/04/23 00:59:47;;;;;;;2.28;2.08;;;;;;;19.12;37.31;100697.59;;;;-54
2020/04/23 01:02:47;;;;;;;2.45;2.25;;;;;;;19.12;37.33;100695.33;;;;-54
2020/04/23 01:05:47;;;;;;;2.90;2.28;;;;;;;19.11;37.32;100697.39;;;;-54
2020/04/23 01:08:47;;;;;;;2.48;2.28;;;;;;;19.11;37.32;100695.95;;;;-55
2020/04/23 01:11:47;;;;;;;2.76;2.37;;;;;;;19.10;37.29;100704.20;;;;-54
2020/04/23 01:14:47;;;;;;;2.57;2.37;;;;;;;19.10;37.26;100697.61;;;;-54
2020/04/23 01:17:47;;;;;;;2.66;2.20;;;;;;;19.10;37.26;100703.27;;;;-54
2020/04/23 01:20:47;;;;;;;2.57;2.37;;;;;;;19.09;37.26;100701.37;;;;-53
2020/04/23 01:23:47;;;;;;;2.30;2.10;;;;;;;19.10;37.24;100698.34;;;;-55
2020/04/23 01:26:47;;;;;;;2.50;2.30;;;;;;;19.09;37.29;100703.48;;;;-54
2020/04/23 01:29:47;;;;;;;2.51;2.31;;;;;;;19.09;37.26;100706.66;;;;-54
2020/04/23 01:32:47;;;;;;;2.90;2.17;;;;;;;19.09;37.22;100705.15;;;;-55
2020/04/23 01:35:47;;;;;;;2.48;2.28;;;;;;;19.08;37.28;100704.61;;;;-54
2020/04/23 01:38:47;;;;;;;2.41;2.21;;;;;;;19.08;37.26;100712.03;;;;-54
2020/04/23 01:41:47;;;;;;;2.28;2.08;;;;;;;19.08;37.30;100712.47;;;;-54
2020/04/23 01:44:47;;;;;;;2.44;2.24;;;;;;;19.08;37.22;100719.57;;;;-54
2020/04/23 01:47:47;;;;;;;2.93;2.15;;;;;;;19.07;37.28;100718.95;;;;-55
2020/04/23 01:50:49;;;;;;;2.43;2.23;;;;;;;19.08;37.22;100727.70;;;;-54
2020/04/23 01:54:00;;;;;;;2.50;2.30;;;;;;;19.07;37.24;100729.66;;;;-54
2020/04/23 02:03:02;;;;;;;2.53;2.33;;;;;;;19.06;37.21;100744.17;;;;-54
2020/04/23 02:10:59;;;;;;;2.35;2.15;;;;;;;19.06;37.20;100759.18;;;;-54
2020/04/23 02:17:57;;;;;;;2.42;2.22;;;;;;;19.05;37.26;100759.13;;;;-54
2020/04/23 02:20:56;;;;;;;2.36;2.15;;;;;;;19.05;37.22;100764.31;;;;-55
2020/04/23 02:24:02;;;;;;;3.61;2.23;;;;;;;19.06;37.20;100769.19;;;;-55
2020/04/23 02:26:56;;;;;;;2.47;2.27;;;;;;;19.05;37.26;100772.42;;;;-54
2020/04/23 02:36:52;;;;;;;2.47;2.18;;;;;;;19.03;37.21;100775.60;;;;-54
2020/04/23 02:39:52;;;;;;;2.47;2.27;;;;;;;19.03;37.25;100771.58;;;;-54
2020/04/23 02:43:39;;;;;;;2.31;2.11;;;;;;;19.02;37.24;100766.74;;;;-54
2020/04/23 02:47:00;;;;;;;2.71;2.29;;;;;;;19.02;37.26;100766.67;;;;-54
2020/04/23 02:49:57;;;;;;;2.60;2.40;;;;;;;19.02;37.24;100770.92;;;;-55
2020/04/23 02:53:00;;;;;;;2.51;2.31;;;;;;;19.02;37.18;100771.02;;;;-54
2020/04/23 02:55:57;;;;;;;2.49;2.29;;;;;;;19.01;37.21;100771.81;;;;-54
2020/04/23 02:59:46;;;;;;;2.51;2.31;;;;;;;19.01;37.16;100776.39;;;;-55
2020/04/23 03:02:47;;;;;;;2.38;2.18;;;;;;;19.00;37.22;100778.29;;;;-53
2020/04/23 03:05:47;;;;;;;2.47;2.27;;;;;;;19.00;37.24;100778.96;;;;-54
2020/04/23 03:08:47;;;;;;;2.56;2.33;;;;;;;19.01;37.21;100776.55;;;;-54
2020/04/23 03:11:47;;;;;;;2.73;2.51;;;;;;;18.99;37.18;100771.70;;;;-54
2020/04/23 03:14:47;;;;;;;2.44;2.24;;;;;;;18.99;37.20;100773.38;;;;-54
2020/04/23 03:17:47;;;;;;;2.44;2.24;;;;;;;18.99;37.20;100769.03;;;;-54
2020/04/23 03:20:47;;;;;;;2.56;2.36;;;;;;;18.98;37.18;100772.73;;;;-55
2020/04/23 03:23:47;;;;;;;2.43;2.23;;;;;;;18.98;37.14;100772.50;;;;-54
2020/04/23 03:26:47;;;;;;;2.64;2.44;;;;;;;18.98;37.19;100775.84;;;;-54
2020/04/23 03:29:47;;;;;;;2.63;2.43;;;;;;;18.98;37.14;100783.38;;;;-54
2020/04/23 03:32:47;;;;;;;2.49;2.29;;;;;;;18.98;37.21;100776.23;;;;-54
2020/04/23 03:35:47;;;;;;;2.50;2.30;;;;;;;18.98;37.14;100781.77;;;;-54
2020/04/23 03:38:47;;;;;;;2.68;2.48;;;;;;;18.97;37.17;100780.81;;;;-54
2020/04/23 03:41:47;;;;;;;3.07;2.42;;;;;;;18.97;37.16;100784.83;;;;-54
2020/04/23 03:44:47;;;;;;;2.51;2.31;;;;;;;18.97;37.19;100782.89;;;;-54
2020/04/23 03:47:47;;;;;;;2.41;2.21;;;;;;;18.96;37.22;100784.45;;;;-54
2020/04/23 03:50:47;;;;;;;2.49;2.29;;;;;;;18.96;37.20;100787.02;;;;-54
2020/04/23 03:53:47;;;;;;;2.47;2.27;;;;;;;18.96;37.20;100788.46;;;;-54
2020/04/23 03:56:47;;;;;;;2.47;2.27;;;;;;;18.96;37.13;100787.85;;;;-54
2020/04/23 03:59:47;;;;;;;2.49;2.29;;;;;;;18.97;37.17;100793.03;;;;-54
2020/04/23 04:02:47;;;;;;;2.41;2.21;;;;;;;18.96;37.17;100790.70;;;;-54
2020/04/23 04:05:47;;;;;;;2.49;2.29;;;;;;;18.96;37.18;100793.81;;;;-54
2020/04/23 04:08:47;;;;;;;3.59;2.44;;;;;;;18.96;37.19;100798.39;;;;-54
2020/04/23 04:11:48;;;;;;;2.52;2.32;;;;;;;18.96;37.14;100799.58;;;;-54
2020/04/23 04:14:47;;;;;;;2.49;2.29;;;;;;;18.95;37.19;100805.48;;;;-54
2020/04/23 04:17:47;;;;;;;2.66;2.46;;;;;;;18.95;37.18;100802.73;;;;-54
2020/04/23 04:20:47;;;;;;;2.57;2.37;;;;;;;18.95;37.13;100807.65;;;;-54
2020/04/23 04:23:47;;;;;;;2.55;2.35;;;;;;;18.95;37.17;100803.81;;;;-54
2020/04/23 04:26:47;;;;;;;2.45;2.25;;;;;;;18.94;37.17;100807.61;;;;-55
2020/04/23 04:29:47;;;;;;;2.45;2.25;;;;;;;18.95;37.16;100811.39;;;;-54
2020/04/23 04:32:47;;;;;;;2.50;2.30;;;;;;;18.95;37.13;100817.42;;;;-54
2020/04/23 04:35:47;;;;;;;2.61;2.41;;;;;;;18.95;37.13;100822.94;;;;-54
2020/04/23 04:38:47;;;;;;;2.49;2.29;;;;;;;18.95;37.15;100827.06;;;;-54
2020/04/23 04:41:47;;;;;;;2.51;2.31;;;;;;;18.95;37.16;100833.53;;;;-54
2020/04/23 04:44:47;;;;;;;3.15;2.50;;;;;;;18.94;37.13;100837.90;;;;-55
2020/04/23 04:47:47;;;;;;;2.48;2.28;;;;;;;18.94;37.14;100837.66;;;;-54
2020/04/23 04:50:47;;;;;;;2.49;2.29;;;;;;;18.94;37.14;100835.72;;;;-54
2020/04/23 04:53:47;;;;;;;3.34;2.22;;;;;;;18.96;37.29;100842.58;;;;-50
2020/04/23 04:56:47;;;;;;;3.02;2.56;;;;;;;18.96;37.36;100845.88;;;;-58
2020/04/23 04:59:47;;;;;;;2.88;2.31;;;;;;;18.97;37.29;100845.66;;;;-58
2020/04/23 05:02:47;;;;;;;2.40;2.20;;;;;;;18.97;37.21;100848.16;;;;-58
2020/04/23 05:05:47;;;;;;;2.73;2.32;;;;;;;18.98;37.09;100854.41;;;;-63
2020/04/23 05:08:47;;;;;;;6.25;2.94;;;;;;;18.91;35.17;100851.69;;;;-55
2020/04/23 05:11:47;;;;;;;5.85;3.37;;;;;;;18.80;34.24;100857.77;;;;-55
2020/04/23 05:14:47;;;;;;;4.52;3.17;;;;;;;18.75;34.60;100855.89;;;;-54
2020/04/23 05:17:47;;;;;;;6.31;3.59;;;;;;;18.72;34.28;100862.58;;;;-58
2020/04/23 05:20:47;;;;;;;4.35;3.61;;;;;;;18.72;34.18;100860.58;;;;-56
2020/04/23 05:23:47;;;;;;;4.70;3.39;;;;;;;18.77;34.86;100861.02;;;;-56
2020/04/23 05:26:47;;;;;;;4.92;3.24;;;;;;;18.82;35.15;100866.88;;;;-57
2020/04/23 05:29:47;;;;;;;5.41;3.29;;;;;;;18.85;35.34;100863.86;;;;-58
2020/04/23 05:32:47;;;;;;;5.41;3.23;;;;;;;18.87;35.49;100869.42;;;;-56
2020/04/23 05:35:47;;;;;;;3.82;3.28;;;;;;;18.90;35.62;100875.52;;;;-58
2020/04/23 05:38:48;;;;;;;4.62;3.15;;;;;;;18.91;35.76;100873.77;;;;-58
2020/04/23 05:41:47;;;;;;;4.37;2.81;;;;;;;18.93;35.87;100874.50;;;;-57
2020/04/23 05:44:47;;;;;;;3.26;2.85;;;;;;;18.95;35.95;100872.31;;;;-57
2020/04/23 05:47:57;;;;;;;4.10;2.96;;;;;;;18.96;36.05;100877.22;;;;-56
2020/04/23 05:50:58;;;;;;;4.10;3.22;;;;;;;18.97;36.14;100876.44;;;;-58
2020/04/23 06:11:54;;;;;;;5.14;3.09;;;;;;;19.03;36.42;100899.46;;;;-56
2020/04/23 06:15:01;;;;;;;4.04;2.96;;;;;;;19.03;36.47;100902.15;;;;-55
2020/04/23 06:17:54;;;;;;;3.06;2.82;;;;;;;19.04;36.53;100907.22;;;;-56
2020/04/23 06:30:06;;;;;;;4.49;2.87;;;;;;;19.05;36.56;100902.55;;;;-56
2020/04/23 06:35:53;;;;;;;3.38;2.89;;;;;;;19.07;36.62;100906.67;;;;-57
2020/04/23 06:42:00;;;;;;;5.15;2.80;;;;;;;19.07;36.73;100908.62;;;;-57
2020/04/23 06:44:58;;;;;;;3.31;2.73;;;;;;;19.08;36.74;100908.00;;;;-56
2020/04/23 06:49:38;;;;;;;5.77;2.74;;;;;;;19.09;36.75;100909.22;;;;-56
2020/04/23 06:53:02;;;;;;;3.14;2.84;;;;;;;19.09;36.84;100911.23;;;;-57
2020/04/23 06:58:56;;;;;;;4.17;2.95;;;;;;;19.12;36.95;100916.31;;;;-59
2020/04/23 07:02:15;;;;;;;3.19;2.70;;;;;;;19.11;36.91;100918.87;;;;-58
2020/04/23 07:04:55;;;;;;;5.15;2.77;;;;;;;19.11;36.80;100921.05;;;;-59
2020/04/23 07:13:05;;;;;;;3.04;2.62;;;;;;;19.10;36.79;100926.62;;;;-59
2020/04/23 07:16:10;;;;;;;3.06;2.76;;;;;;;19.10;36.80;100919.31;;;;-51
2020/04/23 07:28:07;;;;;;;2.93;2.64;;;;;;;19.13;36.99;100921.53;;;;-57
2020/04/23 07:34:04;;;;;;;4.43;2.72;;;;;;;19.14;36.98;100925.53;;;;-58
2020/04/23 07:36:54;;;;;;;3.59;2.65;;;;;;;19.15;36.95;100925.76;;;;-58
2020/04/23 07:39:56;;;;;;;3.37;2.67;;;;;;;19.16;36.94;100925.43;;;;-57
2020/04/23 07:44:37;;;;;;;3.62;2.69;;;;;;;19.17;36.97;100926.05;;;;-58
2020/04/23 07:47:00;;;;;;;6.69;2.60;;;;;;;19.17;36.99;100922.64;;;;-53
2020/04/23 08:00:34;;;;;;;3.21;2.80;;;;;;;19.22;37.68;100914.97;;;;-53
2020/04/23 08:07:57;;;;;;;11.50;2.79;;;;;;;19.28;37.74;100916.19;;;;-55
2020/04/23 08:10:55;;;;;;;10.57;3.33;;;;;;;19.29;38.18;100915.80;;;;-54
2020/04/23 08:13:56;;;;;;;8.25;2.81;;;;;;;19.32;38.24;100920.70;;;;-59
2020/04/23 08:21:13;;;;;;;6.78;2.79;;;;;;;19.31;38.10;100909.38;;;;-56
2020/04/23 08:23:55;;;;;;;5.27;2.70;;;;;;;19.31;38.27;100908.37;;;;-55
2020/04/23 08:39:12;;;;;;;7.02;2.82;;;;;;;19.33;38.19;100906.97;;;;-53
2020/04/23 08:41:57;;;;;;;4.37;2.70;;;;;;;19.34;38.25;100911.81;;;;-52
2020/04/23 08:44:57;;;;;;;4.61;2.50;;;;;;;19.34;38.12;100911.42;;;;-52
2020/04/23 08:52:13;;;;;;;5.11;2.63;;;;;;;19.36;38.40;100909.08;;;;-54
2020/04/23 08:54:58;;;;;;;4.34;2.57;;;;;;;19.37;38.30;100907.73;;;;-54
2020/04/23 09:03:52;;;;;;;5.73;2.69;;;;;;;19.40;38.26;100905.39;;;;-54
2020/04/23 09:10:04;;;;;;;3.04;2.43;;;;;;;19.42;38.29;100901.41;;;;-53
2020/04/23 09:12:56;;;;;;;4.41;2.69;;;;;;;19.42;38.29;100900.97;;;;-63
2020/04/23 09:16:54;;;;;;;3.36;2.53;;;;;;;19.41;38.20;100899.23;;;;-64
2020/04/23 09:20:03;;;;;;;2.93;2.23;;;;;;;19.43;38.13;100898.28;;;;-62
2020/04/23 09:22:53;;;;;;;3.63;2.63;;;;;;;19.43;38.10;100898.95;;;;-58
2020/04/23 09:25:57;;;;;;;3.26;2.47;;;;;;;19.43;38.12;100891.63;;;;-58
2020/04/23 09:29:04;;;;;;;3.49;2.61;;;;;;;19.45;38.06;100889.34;;;;-59
2020/04/23 09:31:53;;;;;;;4.49;2.51;;;;;;;19.45;38.16;100885.00;;;;-57
2020/04/23 09:34:55;;;;;;;2.81;2.43;;;;;;;19.46;38.16;100885.64;;;;-54
2020/04/23 09:42:54;;;;;;;3.69;2.70;;;;;;;19.47;38.20;100885.31;;;;-64
2020/04/23 09:45:57;;;;;;;3.79;2.51;;;;;;;19.48;38.17;100880.67;;;;-56
2020/04/23 09:49:01;;;;;;;4.24;2.49;;;;;;;19.48;38.26;100878.44;;;;-53
2020/04/23 09:51:53;;;;;;;2.73;2.45;;;;;;;19.47;38.21;100879.23;;;;-56
2020/04/23 10:02:02;;;;;;;3.64;2.53;;;;;;;19.48;38.00;100873.41;;;;-56
2020/04/23 10:11:02;;;;;;;5.07;2.45;;;;;;;19.49;37.98;100861.97;;;;-54
2020/04/23 10:13:58;;;;;;;3.46;2.63;;;;;;;19.49;38.12;100854.04;;;;-51
2020/04/23 10:20:00;;;;;;;4.28;2.48;;;;;;;19.48;38.00;100851.14;;;;-53
2020/04/23 10:23:03;;;;;;;3.79;2.50;;;;;;;19.47;37.91;100842.14;;;;-52
2020/04/23 10:34:13;;;;;;;4.90;2.43;;;;;;;19.45;37.79;100850.98;;;;-52
2020/04/23 10:36:57;;;;;;;3.36;2.25;;;;;;;19.44;37.76;100843.66;;;;-52
2020/04/23 10:39:56;;;;;;;4.37;2.49;;;;;;;19.44;37.72;100834.69;;;;-52
2020/04/23 10:49:01;;;;;;;2.87;2.19;;;;;;;19.42;37.63;100837.66;;;;-53
2020/04/23 10:57:11;;;;;;;2.50;2.30;;;;;;;19.41;37.57;100826.16;;;;-52
2020/04/23 11:00:00;;;;;;;2.95;2.62;;;;;;;19.40;37.57;100826.65;;;;-54
2020/04/23 11:03:02;;;;;;;2.53;2.24;;;;;;;19.40;37.56;100820.80;;;;-52
2020/04/23 11:05:48;;;;;;;3.57;2.53;;;;;;;19.39;37.57;100824.21;;;;-53
2020/04/23 11:08:47;;;;;;;2.92;2.47;;;;;;;19.38;37.52;100818.51;;;;-52
2020/04/23 11:11:47;;;;;;;3.53;2.45;;;;;;;19.38;37.51;100818.47;;;;-52
2020/04/23 11:14:47;;;;;;;2.73;2.42;;;;;;;19.38;37.53;100818.23;;;;-51
2020/04/23 11:17:48;;;;;;;3.61;2.35;;;;;;;19.37;37.48;100812.55;;;;-53
2020/04/23 11:23:16;;;;;;;2.40;2.20;;;;;;;19.35;37.55;100811.61;;;;-52
2020/04/23 11:26:17;;;;;;;4.41;2.45;;;;;;;19.37;37.64;100801.71;;;;-51
2020/04/23 11:29:17;;;;;;;2.83;2.25;;;;;;;19.38;37.67;100798.58;;;;-52
2020/04/23 11:32:17;;;;;;;3.80;2.31;;;;;;;19.39;37.60;100801.98;;;;-52
2020/04/23 11:35:16;;;;;;;3.61;2.30;;;;;;;19.41;37.76;100801.47;;;;-50
2020/04/23 11:38:16;;;;;;;3.02;2.35;;;;;;;19.42;37.71;100808.02;;;;-54
2020/04/23 11:41:17;;;;;;;6.54;2.33;;;;;;;19.44;37.73;100807.61;;;;-55
2020/04/23 11:44:17;;;;;;;3.45;2.26;;;;;;;19.44;37.78;100803.37;;;;-53
2020/04/23 11:47:17;;;;;;;4.15;2.42;;;;;;;19.45;37.76;100798.28;;;;-52
2020/04/23 11:50:17;;;;;;;2.37;2.17;;;;;;;19.45;37.78;100795.38;;;;-51
2020/04/23 11:53:16;;;;;;;3.80;2.36;;;;;;;19.48;37.75;100797.13;;;;-57
2020/04/23 11:56:16;;;;;;;2.73;2.31;;;;;;;19.47;37.73;100787.37;;;;-59
2020/04/23 11:59:16;;;;;;;3.48;2.40;;;;;;;19.48;37.78;100785.53;;;;-56
2020/04/23 12:02:16;;;;;;;4.90;2.41;;;;;;;19.47;37.79;100782.34;;;;-53
2020/04/23 12:05:17;;;;;;;4.21;2.22;;;;;;;19.48;37.75;100780.67;;;;-58
2020/04/23 12:08:17;;;;;;;3.26;2.39;;;;;;;19.48;37.81;100773.25;;;;-58
2020/04/23 12:11:16;;;;;;;2.52;2.27;;;;;;;19.48;37.78;100766.72;;;;-61
2020/04/23 12:14:16;;;;;;;4.50;2.50;;;;;;;19.49;37.75;100767.60;;;;-54
2020/04/23 12:17:16;;;;;;;5.13;2.39;;;;;;;19.50;37.91;100761.05;;;;-55
2020/04/23 12:20:17;;;;;;;5.65;2.29;;;;;;;19.51;37.84;100758.08;;;;-54
2020/04/23 12:23:17;;;;;;;5.99;2.32;;;;;;;19.51;37.84;100751.78;;;;-58
2020/04/23 12:26:17;;;;;;;4.49;2.50;;;;;;;19.51;37.86;100746.59;;;;-60
2020/04/23 12:29:17;;;;;;;4.13;2.47;;;;;;;19.51;37.86;100742.74;;;;-56
2020/04/23 12:32:16;;;;;;;3.68;2.13;;;;;;;19.51;37.83;100735.70;;;;-56
2020/04/23 12:35:16;;;;;;;4.31;2.30;;;;;;;19.51;37.85;100738.38;;;;-56
2020/04/23 12:38:16;;;;;;;5.61;2.39;;;;;;;19.54;37.92;100738.75;;;;-54
2020/04/23 12:41:17;;;;;;;5.27;2.35;;;;;;;19.54;37.90;100733.06;;;;-54
2020/04/23 12:44:17;;;;;;;6.03;2.24;;;;;;;19.52;37.97;100723.36;;;;-57
2020/04/23 12:47:17;;;;;;;4.73;2.40;;;;;;;19.53;37.97;100716.77;;;;-56
2020/04/23 12:50:16;;;;;;;3.31;2.51;;;;;;;19.54;38.01;100707.27;;;;-59
2020/04/23 12:53:16;;;;;;;3.79;2.32;;;;;;;19.54;38.01;100704.18;;;;-59
2020/04/23 12:56:16;;;;;;;6.67;2.23;;;;;;;19.55;37.97;100710.27;;;;-53
2020/04/23 12:59:16;;;;;;;2.83;2.19;;;;;;;19.54;37.99;100699.73;;;;-55
2020/04/23 13:02:16;;;;;;;4.15;2.15;;;;;;;19.55;37.94;100702.29;;;;-55
2020/04/23 13:05:17;;;;;;;3.88;2.30;;;;;;;19.55;37.97;100696.19;;;;-54
2020/04/23 13:08:17;;;;;;;4.51;2.29;;;;;;;19.55;38.02;100691.34;;;;-56
2020/04/23 13:11:16;;;;;;;3.06;2.01;;;;;;;19.56;37.98;100691.88;;;;-55
2020/04/23 13:14:16;;;;;;;3.20;2.29;;;;;;;19.55;37.90;100690.73;;;;-56
2020/04/23 13:17:16;;;;;;;4.07;2.22;;;;;;;19.55;37.92;100683.19;;;;-56
2020/04/23 13:20:16;;;;;;;2.79;2.18;;;;;;;19.54;37.85;100683.98;;;;-58
2020/04/23 13:23:17;;;;;;;3.64;2.27;;;;;;;19.56;37.87;100683.23;;;;-56
2020/04/23 13:26:17;;;;;;;3.27;2.19;;;;;;;19.55;37.77;100668.44;;;;-58
2020/04/23 13:29:16;;;;;;;4.32;2.19;;;;;;;19.54;37.80;100673.03;;;;-58
2020/04/23 13:32:16;;;;;;;4.14;2.19;;;;;;;19.53;37.71;100668.63;;;;-57
2020/04/23 13:35:16;;;;;;;3.03;2.29;;;;;;;19.53;37.73;100671.20;;;;-57
2020/04/23 13:38:16;;;;;;;4.46;2.20;;;;;;;19.52;37.72;100664.78;;;;-57
2020/04/23 13:41:17;;;;;;;3.63;2.17;;;;;;;19.52;37.71;100670.65;;;;-54
2020/04/23 13:44:17;;;;;;;5.25;2.23;;;;;;;19.50;37.65;100663.13;;;;-53
2020/04/23 13:47:16;;;;;;;4.67;2.23;;;;;;;19.51;38.27;100655.19;;;;-53
2020/04/23 13:50:16;;;;;;;4.33;2.03;;;;;;;19.52;38.29;100655.23;;;;-54
2020/04/23 13:53:16;;;;;;;3.97;2.37;;;;;;;19.53;38.35;100653.44;;;;-56
2020/04/23 13:56:16;;;;;;;4.01;2.13;;;;;;;19.54;38.52;100649.13;;;;-57
2020/04/23 13:59:16;;;;;;;3.88;2.21;;;;;;;19.54;38.59;100640.59;;;;-53
2020/04/23 14:02:16;;;;;;;3.15;1.97;;;;;;;19.54;38.73;100636.17;;;;-50
2020/04/23 14:05:17;;;;;;;5.39;2.03;;;;;;;19.55;38.76;100635.61;;;;-48
2020/04/23 14:08:16;;;;;;;3.51;2.16;;;;;;;19.56;38.68;100635.09;;;;-53
2020/04/23 14:11:16;;;;;;;2.45;2.01;;;;;;;19.56;38.66;100628.73;;;;-55
2020/04/23 14:14:16;;;;;;;4.19;2.23;;;;;;;19.56;38.63;100628.30;;;;-62
2020/04/23 14:17:16;;;;;;;2.89;2.00;;;;;;;19.57;38.60;100620.29;;;;-53
2020/04/23 14:20:16;;;;;;;2.16;1.96;;;;;;;19.57;38.56;100613.59;;;;-58
2020/04/23 14:23:17;;;;;;;3.10;1.98;;;;;;;19.58;38.57;100617.59;;;;-57
2020/04/23 14:26:17;;;;;;;3.06;1.91;;;;;;;19.58;38.58;100611.73;;;;-58
2020/04/23 14:29:16;;;;;;;3.11;2.05;;;;;;;19.59;38.56;100608.16;;;;-58
2020/04/23 14:32:16;;;;;;;2.31;2.07;;;;;;;19.60;38.56;100606.47;;;;-58
2020/04/23 14:35:16;;;;;;;2.84;2.15;;;;;;;19.60;38.60;100601.06;;;;-52
2020/04/23 14:38:17;;;;;;;5.05;2.18;;;;;;;19.61;38.46;100598.44;;;;-52
2020/04/23 14:41:17;;;;;;;5.89;2.11;;;;;;;19.60;38.49;100599.22;;;;-51
2020/04/23 14:44:25;;;;;;;3.12;2.13;;;;;;;19.59;38.51;100598.55;;;;-51
2020/04/23 14:47:16;;;;;;;2.62;2.08;;;;;;;19.59;38.43;100594.92;;;;-52
2020/04/23 14:50:16;;;;;;;2.25;1.99;;;;;;;19.58;38.36;100593.97;;;;-52
2020/04/23 14:53:16;;;;;;;2.77;2.16;;;;;;;19.57;38.33;100590.25;;;;-52
2020/04/23 14:56:16;;;;;;;7.27;2.23;;;;;;;19.57;38.37;100591.14;;;;-48
2020/04/23 14:59:17;;;;;;;6.93;2.19;;;;;;;19.58;38.52;100585.27;;;;-52
2020/04/23 15:02:17;;;;;;;3.07;2.01;;;;;;;19.60;38.41;100585.25;;;;-52
2020/04/23 15:05:16;;;;;;;7.01;2.09;;;;;;;19.60;38.59;100584.31;;;;-55
2020/04/23 15:08:16;;;;;;;5.54;2.16;;;;;;;19.59;38.60;100580.45;;;;-58
2020/04/23 15:11:16;;;;;;;3.91;2.05;;;;;;;19.62;38.55;100571.67;;;;-52
2020/04/23 15:14:16;;;;;;;6.07;2.25;;;;;;;19.62;38.58;100569.16;;;;-59
2020/04/23 15:17:16;;;;;;;2.89;2.08;;;;;;;19.62;38.59;100568.66;;;;-53
2020/04/23 15:20:16;;;;;;;3.47;1.97;;;;;;;19.63;38.63;100566.19;;;;-52
2020/04/23 15:23:16;;;;;;;3.89;2.25;;;;;;;19.63;38.60;100563.00;;;;-57
2020/04/23 15:26:16;;;;;;;5.34;2.17;;;;;;;19.64;38.61;100557.39;;;;-57
2020/04/23 15:29:17;;;;;;;4.27;2.20;;;;;;;19.64;38.59;100560.14;;;;-57
2020/04/23 15:32:16;;;;;;;2.51;2.04;;;;;;;19.63;38.58;100553.66;;;;-55
2020/04/23 15:35:17;;;;;;;4.85;2.13;;;;;;;19.64;38.61;100550.36;;;;-53
2020/04/23 15:38:17;;;;;;;2.13;1.93;;;;;;;19.65;38.65;100547.02;;;;-57
2020/04/23 15:41:17;;;;;;;2.62;2.06;;;;;;;19.66;38.65;100545.14;;;;-54
2020/04/23 15:44:16;;;;;;;2.51;2.01;;;;;;;19.65;38.67;100544.27;;;;-56
2020/04/23 15:47:16;;;;;;;5.54;2.06;;;;;;;19.66;38.69;100539.95;;;;-53
2020/04/23 15:50:16;;;;;;;5.23;2.28;;;;;;;19.66;38.67;100539.52;;;;-52
2020/04/23 15:53:16;;;;;;;3.57;2.12;;;;;;;19.67;38.72;100538.33;;;;-56
2020/04/23 15:56:17;;;;;;;3.31;2.03;;;;;;;19.67;38.73;100532.02;;;;-58
2020/04/23 15:59:17;;;;;;;2.13;1.93;;;;;;;19.68;38.81;100531.97;;;;-54
2020/04/23 16:02:16;;;;;;;2.67;1.97;;;;;;;19.67;38.79;100532.23;;;;-53
2020/04/23 16:05:16;;;;;;;3.37;2.02;;;;;;;19.68;38.76;100525.94;;;;-53
2020/04/23 16:08:16;;;;;;;2.79;2.07;;;;;;;19.68;38.80;100523.92;;;;-54
2020/04/23 16:11:16;;;;;;;3.48;2.01;;;;;;;19.68;38.80;100518.70;;;;-52
2020/04/23 16:14:16;;;;;;;2.50;1.97;;;;;;;19.69;38.83;100519.27;;;;-53
2020/04/23 16:17:17;;;;;;;2.86;2.00;;;;;;;19.69;38.84;100514.86;;;;-52
2020/04/23 16:20:17;;;;;;;2.15;1.95;;;;;;;19.70;38.80;100510.25;;;;-51
2020/04/23 16:23:16;;;;;;;4.59;2.11;;;;;;;19.71;38.79;100505.06;;;;-53
2020/04/23 16:26:16;;;;;;;4.35;2.00;;;;;;;19.71;38.87;100506.47;;;;-53
2020/04/23 16:29:16;;;;;;;4.53;2.03;;;;;;;19.71;38.84;100505.16;;;;-51
2020/04/23 16:32:16;;;;;;;2.83;1.94;;;;;;;19.72;38.88;100502.59;;;;-52
2020/04/23 16:35:16;;;;;;;3.59;1.90;;;;;;;19.72;38.72;100502.52;;;;-52
2020/04/23 16:38:17;;;;;;;2.85;2.03;;;;;;;19.72;38.79;100502.82;;;;-52
2020/04/23 16:41:16;;;;;;;2.85;1.94;;;;;;;19.72;38.73;100500.48;;;;-52
2020/04/23 16:44:16;;;;;;;2.41;1.95;;;;;;;19.70;38.73;100499.02;;;;-51
2020/04/23 16:47:16;;;;;;;2.79;1.99;;;;;;;19.70;38.68;100494.86;;;;-52
2020/04/23 16:50:16;;;;;;;3.40;2.04;;;;;;;19.69;38.63;100491.46;;;;-52
2020/04/23 16:53:17;;;;;;;2.80;1.93;;;;;;;19.68;38.61;100491.80;;;;-51
2020/04/23 16:56:17;;;;;;;2.53;1.99;;;;;;;19.68;38.54;100485.89;;;;-51
2020/04/23 16:59:16;;;;;;;5.04;2.17;;;;;;;19.68;38.54;100484.88;;;;-51
2020/04/23 17:02:16;;;;;;;3.85;2.03;;;;;;;19.67;38.55;100481.02;;;;-51
2020/04/23 17:05:16;;;;;;;2.51;2.01;;;;;;;19.66;38.45;100481.05;;;;-51
2020/04/23 17:08:16;;;;;;;2.15;1.84;;;;;;;19.65;38.50;100481.44;;;;-50
2020/04/23 17:11:16;;;;;;;4.67;2.09;;;;;;;19.65;38.46;100479.49;;;;-51
2020/04/23 17:14:16;;;;;;;2.59;1.92;;;;;;;19.64;38.38;100477.98;;;;-51
2020/04/23 17:20:16;;;;;;;3.85;1.90;;;;;;;19.66;38.44;100475.78;;;;-52
2020/04/23 17:23:16;;;;;;;5.26;1.96;;;;;;;19.65;38.47;100478.36;;;;-57
2020/04/23 17:26:16;;;;;;;4.75;1.86;;;;;;;19.65;38.35;100479.93;;;;-54
2020/04/23 17:29:16;;;;;;;4.32;2.25;;;;;;;19.64;38.38;100477.87;;;;-54
2020/04/23 17:32:17;;;;;;;3.67;2.00;;;;;;;19.63;38.43;100477.50;;;;-55
2020/04/23 17:35:17;;;;;;;2.95;2.01;;;;;;;19.64;38.36;100479.55;;;;-54
2020/04/23 17:38:16;;;;;;;4.52;1.96;;;;;;;19.62;38.42;100475.21;;;;-55
2020/04/23 17:41:16;;;;;;;5.58;2.01;;;;;;;19.62;38.34;100476.78;;;;-55
2020/04/23 17:44:16;;;;;;;3.32;1.96;;;;;;;19.62;38.32;100475.61;;;;-55
2020/04/23 17:47:16;;;;;;;2.11;1.91;;;;;;;19.61;38.32;100472.95;;;;-55
2020/04/23 17:50:16;;;;;;;4.65;2.12;;;;;;;19.60;38.28;100472.23;;;;-54
2020/04/23 17:53:17;;;;;;;2.74;1.93;;;;;;;19.59;38.34;100469.22;;;;-55
2020/04/23 17:56:16;;;;;;;2.73;2.06;;;;;;;19.59;38.23;100471.63;;;;-54
2020/04/23 17:59:16;;;;;;;1.93;1.78;;;;;;;19.59;38.23;100471.89;;;;-55
2020/04/23 18:02:16;;;;;;;3.03;1.95;;;;;;;19.58;38.25;100465.38;;;;-54
2020/04/23 18:05:16;;;;;;;3.14;1.99;;;;;;;19.58;38.24;100467.23;;;;-55
2020/04/23 18:08:16;;;;;;;3.13;1.93;;;;;;;19.57;38.23;100470.37;;;;-55
2020/04/23 18:11:16;;;;;;;3.93;2.11;;;;;;;19.57;38.19;100472.70;;;;-54
2020/04/23 18:14:17;;;;;;;2.12;1.93;;;;;;;19.56;38.17;100465.56;;;;-55
2020/04/23 18:17:16;;;;;;;2.29;1.92;;;;;;;19.56;38.20;100468.48;;;;-55
2020/04/23 18:20:16;;;;;;;3.09;1.92;;;;;;;19.56;38.20;100467.91;;;;-55
2020/04/23 18:23:16;;;;;;;2.53;1.91;;;;;;;19.55;38.17;100469.88;;;;-54
2020/04/23 18:26:16;;;;;;;2.46;1.98;;;;;;;19.54;38.18;100473.58;;;;-55
2020/04/23 18:29:16;;;;;;;3.07;2.05;;;;;;;19.54;38.18;100473.85;;;;-55
2020/04/23 18:32:16;;;;;;;4.73;1.94;;;;;;;19.54;38.28;100475.03;;;;-51
2020/04/23 18:35:16;;;;;;;2.73;1.87;;;;;;;19.57;38.39;100476.39;;;;-53
2020/04/23 18:38:16;;;;;;;2.08;1.88;;;;;;;19.56;38.41;100477.96;;;;-55
2020/04/23 18:41:16;;;;;;;2.03;1.85;;;;;;;19.56;38.50;100483.83;;;;-57
2020/04/23 18:44:16;;;;;;;2.24;1.97;;;;;;;19.57;38.56;100480.75;;;;-57
2020/04/23 18:47:16;;;;;;;2.26;1.99;;;;;;;19.57;38.56;100483.36;;;;-54
2020/04/23 18:50:17;;;;;;;2.03;1.80;;;;;;;19.59;38.65;100484.79;;;;-54
2020/04/23 18:53:16;;;;;;;3.55;1.99;;;;;;;19.59;38.78;100485.70;;;;-52
2020/04/23 18:56:16;;;;;;;4.47;1.91;;;;;;;19.61;38.74;100489.30;;;;-57
2020/04/23 18:59:16;;;;;;;1.97;1.77;;;;;;;19.61;38.80;100491.75;;;;-58
2020/04/23 19:02:16;;;;;;;4.85;1.95;;;;;;;19.62;38.90;100491.36;;;;-64
2020/04/23 19:05:16;;;;;;;4.78;2.16;;;;;;;19.62;38.82;100491.70;;;;-56
2020/04/23 19:08:16;;;;;;;5.33;1.94;;;;;;;19.63;38.78;100494.69;;;;-54
2020/04/23 19:11:17;;;;;;;2.23;1.93;;;;;;;19.64;38.77;100496.64;;;;-57
2020/04/23 19:14:16;;;;;;;2.77;2.03;;;;;;;19.63;38.82;100496.09;;;;-55
2020/04/23 19:17:16;;;;;;;2.29;1.90;;;;;;;19.64;38.83;100501.61;;;;-51
2020/04/23 19:20:16;;;;;;;4.85;1.92;;;;;;;19.66;39.08;100501.25;;;;-53
2020/04/23 19:23:16;;;;;;;3.85;1.91;;;;;;;19.67;38.88;100503.64;;;;-54
2020/04/23 19:26:16;;;;;;;5.01;1.99;;;;;;;19.66;38.97;100504.38;;;;-54
2020/04/23 19:29:16;;;;;;;4.67;1.95;;;;;;;19.68;38.96;100504.83;;;;-56
2020/04/23 19:32:16;;;;;;;3.53;1.98;;;;;;;19.68;38.98;100500.80;;;;-52
2020/04/23 19:35:16;;;;;;;3.81;1.92;;;;;;;19.68;38.92;100504.09;;;;-52